createdAt,value
2019-02-26T00:00:54.026Z,55.80
2019-02-26T00:03:23.906Z,53.28
2019-02-26T00:05:51.797Z,56.40
2019-02-26T00:08:19.407Z,54.00
2019-02-26T00:10:44.608Z,49.83
2019-02-26T00:13:10.963Z,56.25
2019-02-26T00:15:38.571Z,56.53
2019-02-26T00:18:07.447Z,58.40
2019-02-26T00:20:34.337Z,54.60
2019-02-26T00:23:02.117Z,62.20
2019-02-26T00:25:29.479Z,57.33
2019-02-26T00:27:56.338Z,52.43
2019-02-26T00:30:23.791Z,56.75
2019-02-26T00:32:50.159Z,53.98
2019-02-26T00:35:19.095Z,61.37
2019-02-26T00:37:46.479Z,54.20
2019-02-26T00:40:14.603Z,60.28
2019-02-26T00:42:41.003Z,57.83
2019-02-26T00:45:11.549Z,57.53
2019-02-26T00:47:38.892Z,57.30
2019-02-26T00:50:12.018Z,58.48
2019-02-26T00:52:39.418Z,57.33
2019-02-26T00:55:07.187Z,59.30
2019-02-26T00:57:35.761Z,48.95
2019-02-26T01:00:03.419Z,53.55
2019-02-26T01:02:30.218Z,58.17
2019-02-26T01:04:56.456Z,55.88
2019-02-26T01:07:23.863Z,59.40
2019-02-26T01:09:52.465Z,58.40
2019-02-26T01:12:19.069Z,57.03
2019-02-26T01:14:46.351Z,52.13
2019-02-26T01:17:14.840Z,55.03
2019-02-26T01:19:43.094Z,55.83
2019-02-26T01:22:09.444Z,50.88
2019-02-26T01:24:35.699Z,50.88
2019-02-26T01:27:01.978Z,52.85
2019-02-26T01:29:29.937Z,48.35
2019-02-26T01:31:56.372Z,53.13
2019-02-26T01:34:22.704Z,57.53
2019-02-26T01:36:49.595Z,55.05
2019-02-26T01:39:16.350Z,54.77
2019-02-26T01:41:46.057Z,56.37
2019-02-26T01:44:12.535Z,61.18
2019-02-26T01:46:41.056Z,60.58
2019-02-26T01:49:07.147Z,57.53
2019-02-26T01:51:33.510Z,58.10
2019-02-26T01:53:59.746Z,58.78
2019-02-26T01:56:26.072Z,56.85
2019-02-26T01:58:56.597Z,58.50
2019-02-26T02:01:22.009Z,53.70
2019-02-26T02:03:49.150Z,53.42
2019-02-26T02:06:18.182Z,57.78
2019-02-26T02:08:45.799Z,60.58
2019-02-26T02:11:12.685Z,64.17
2019-02-26T02:13:41.242Z,55.20
2019-02-26T02:16:08.908Z,57.30
2019-02-26T02:18:35.289Z,62.05
2019-02-26T02:21:01.652Z,58.68
2019-02-26T02:23:28.570Z,61.37
2019-02-26T02:25:59.727Z,60.12
2019-02-26T02:28:26.211Z,57.50
2019-02-26T02:30:52.405Z,59.40
2019-02-26T02:33:23.576Z,62.17
2019-02-26T02:35:46.807Z,66.67
2019-02-26T02:38:13.121Z,64.85
2019-02-26T02:40:40.221Z,62.40
2019-02-26T02:43:09.744Z,62.13
2019-02-26T02:45:35.657Z,64.75
2019-02-26T02:48:03.243Z,60.88
2019-02-26T02:50:30.197Z,63.98
2019-02-26T02:52:59.057Z,61.40
2019-02-26T02:55:24.816Z,58.85
2019-02-26T02:57:54.600Z,56.48
2019-02-26T03:00:21.250Z,63.87
2019-02-26T03:02:49.986Z,59.75
2019-02-26T03:05:15.343Z,62.98
2019-02-26T03:07:42.363Z,64.05
2019-02-26T03:10:12.072Z,61.00
2019-02-26T03:12:38.419Z,64.90
2019-02-26T03:15:10.031Z,71.17
2019-02-26T03:17:36.612Z,72.03
2019-02-26T03:20:07.680Z,73.07
2019-02-26T03:22:36.347Z,76.67
2019-02-26T03:25:03.158Z,71.97
2019-02-26T03:27:31.421Z,66.57
2019-02-26T03:29:59.110Z,67.20
2019-02-26T03:32:25.554Z,63.45
2019-02-26T03:34:51.788Z,66.53
2019-02-26T03:37:18.178Z,66.28
2019-02-26T03:39:44.453Z,67.78
2019-02-26T03:42:13.448Z,61.37
2019-02-26T03:44:38.819Z,67.42
2019-02-26T03:47:05.101Z,68.70
2019-02-26T03:49:31.380Z,65.35
2019-02-26T03:52:00.318Z,70.78
2019-02-26T03:54:26.609Z,73.90
2019-02-26T03:56:52.921Z,76.55
2019-02-26T03:59:19.128Z,81.22
2019-02-26T04:01:47.812Z,83.90
2019-02-26T04:04:14.070Z,78.67
2019-02-26T04:06:41.150Z,70.47
2019-02-26T04:09:09.125Z,79.85
2019-02-26T04:11:36.348Z,76.82
2019-02-26T04:14:02.722Z,79.70
2019-02-26T04:16:29.877Z,73.95
2019-02-26T04:18:57.087Z,76.42
2019-02-26T04:21:24.409Z,80.80
2019-02-26T04:23:50.643Z,75.37
2019-02-26T04:26:35.085Z,72.00
2019-02-26T04:29:13.404Z,77.15
2019-02-26T04:32:11.864Z,79.55
2019-02-26T04:34:41.343Z,73.55
2019-02-26T04:37:14.279Z,77.87
2019-02-26T04:40:01.462Z,70.00
2019-02-26T04:42:38.377Z,76.45
2019-02-26T04:45:18.265Z,71.10
2019-02-26T04:47:52.411Z,72.37
2019-02-26T04:50:23.002Z,73.35
2019-02-26T04:52:46.751Z,75.40
2019-02-26T04:55:13.053Z,66.00
2019-02-26T04:57:42.100Z,72.47
2019-02-26T05:00:10.619Z,73.17
2019-02-26T05:02:36.204Z,70.92
2019-02-26T05:05:02.539Z,69.15
2019-02-26T05:07:28.803Z,73.70
2019-02-26T05:09:56.903Z,75.42
2019-02-26T05:12:25.175Z,75.15
2019-02-26T05:14:51.415Z,73.02
2019-02-26T05:17:19.049Z,71.50
2019-02-26T05:19:48.404Z,72.05
2019-02-26T05:22:13.993Z,70.83
2019-02-26T05:24:42.426Z,72.92
2019-02-26T05:27:16.588Z,74.35
2019-02-26T05:29:46.589Z,77.72
2019-02-26T05:32:11.680Z,76.70
2019-02-26T05:34:40.048Z,76.92
2019-02-26T05:37:08.179Z,76.20
2019-02-26T05:39:34.321Z,72.30
2019-02-26T05:42:01.317Z,76.17
2019-02-26T05:44:28.865Z,75.37
2019-02-26T05:46:56.802Z,73.57
2019-02-26T05:49:23.240Z,75.05
2019-02-26T05:51:49.533Z,71.57
2019-02-26T05:54:18.592Z,78.78
2019-02-26T05:56:46.136Z,69.62
2019-02-26T05:59:13.293Z,72.92
2019-02-26T06:01:40.210Z,70.97
2019-02-26T06:04:07.741Z,69.07
2019-02-26T06:06:34.856Z,71.07
2019-02-26T06:09:02.901Z,70.52
2019-02-26T06:11:33.183Z,71.22
2019-02-26T06:14:01.326Z,71.30
2019-02-26T06:16:27.119Z,69.90
2019-02-26T06:18:54.545Z,72.25
2019-02-26T06:21:23.393Z,64.70
2019-02-26T06:23:50.660Z,66.67
2019-02-26T06:26:17.852Z,70.10
2019-02-26T06:28:50.319Z,72.10
2019-02-26T06:31:17.470Z,73.47
2019-02-26T06:33:47.180Z,71.12
2019-02-26T06:36:12.456Z,73.33
2019-02-26T06:38:38.850Z,72.58
2019-02-26T06:41:05.202Z,53.33
2019-02-26T06:43:35.478Z,74.45
2019-02-26T06:46:00.175Z,70.52
2019-02-26T06:48:29.629Z,72.92
2019-02-26T06:50:57.432Z,66.67
2019-02-26T06:53:23.812Z,61.58
2019-02-26T06:55:50.099Z,64.47
2019-02-26T06:58:23.739Z,67.67
2019-02-26T07:00:53.329Z,73.10
2019-02-26T07:03:18.244Z,67.08
2019-02-26T07:05:46.644Z,69.60
2019-02-26T07:08:12.922Z,64.70
2019-02-26T07:10:39.201Z,66.30
2019-02-26T07:13:09.306Z,68.50
2019-02-26T07:15:34.029Z,66.07
2019-02-26T07:18:04.356Z,67.20
2019-02-26T07:20:33.983Z,62.50
2019-02-26T07:22:56.682Z,67.25
2019-02-26T07:25:23.236Z,68.83
2019-02-26T07:27:51.222Z,76.57
2019-02-26T07:30:17.588Z,71.77
2019-02-26T07:32:47.654Z,62.23
2019-02-26T07:35:14.389Z,65.17
2019-02-26T07:37:40.814Z,78.40
2019-02-26T07:40:11.129Z,66.62
2019-02-26T07:42:39.715Z,64.27
2019-02-26T07:45:14.614Z,68.05
2019-02-26T07:47:36.488Z,76.50
2019-02-26T07:50:12.264Z,77.55
2019-02-26T07:52:38.332Z,75.35
2019-02-26T07:55:09.159Z,77.65
2019-02-26T07:57:34.839Z,79.27
2019-02-26T08:00:01.132Z,79.07
2019-02-26T08:02:28.407Z,73.22
2019-02-26T08:04:55.864Z,81.17
2019-02-26T08:07:23.915Z,84.15
2019-02-26T08:09:50.181Z,80.05
2019-02-26T08:12:16.657Z,74.25
2019-02-26T08:14:45.151Z,83.25
2019-02-26T08:17:11.080Z,76.97
2019-02-26T08:19:39.817Z,73.85
2019-02-26T08:22:06.150Z,81.00
2019-02-26T08:24:35.158Z,83.92
2019-02-26T08:27:03.403Z,80.05
2019-02-26T08:29:31.211Z,80.50
2019-02-26T08:31:59.613Z,83.85
2019-02-26T08:34:26.722Z,85.67
2019-02-26T08:36:53.126Z,80.65
2019-02-26T08:39:19.558Z,77.25
2019-02-26T08:42:03.656Z,77.35
2019-02-26T08:44:30.278Z,82.62
2019-02-26T08:46:57.379Z,78.52
2019-02-26T08:49:23.750Z,84.42
2019-02-26T08:51:50.026Z,84.32
2019-02-26T08:54:20.926Z,76.17
2019-02-26T08:56:44.548Z,73.75
2019-02-26T08:59:10.816Z,84.37
2019-02-26T09:01:37.128Z,83.52
2019-02-26T09:04:03.374Z,82.10
2019-02-26T09:06:29.642Z,80.60
2019-02-26T09:08:57.950Z,75.50
2019-02-26T09:11:26.217Z,79.40
2019-02-26T09:13:56.326Z,77.42
2019-02-26T09:16:23.371Z,79.85
2019-02-26T09:18:50.223Z,83.87
2019-02-26T09:21:18.086Z,79.20
2019-02-26T09:23:47.402Z,84.40
2019-02-26T09:26:12.843Z,76.67
2019-02-26T09:28:39.185Z,75.35
2019-02-26T09:31:09.630Z,79.58
2019-02-26T09:33:40.360Z,76.50
2019-02-26T09:36:10.509Z,80.65
2019-02-26T09:38:34.743Z,73.90
2019-02-26T09:41:01.236Z,71.72
2019-02-26T09:43:27.477Z,71.47
2019-02-26T09:45:53.762Z,74.50
2019-02-26T09:48:21.996Z,68.95
2019-02-26T09:50:48.720Z,74.87
2019-02-26T09:53:15.052Z,70.52
2019-02-26T09:55:41.441Z,63.90
2019-02-26T09:58:07.938Z,69.85
2019-02-26T10:00:34.376Z,68.92
2019-02-26T10:03:00.675Z,67.65
2019-02-26T10:05:27.094Z,69.42
2019-02-26T10:07:54.895Z,71.77
2019-02-26T10:10:22.062Z,63.85
2019-02-26T10:12:48.459Z,67.85
2019-02-26T10:15:15.723Z,73.17
2019-02-26T10:17:42.743Z,65.15
2019-02-26T10:20:20.861Z,64.70
2019-02-26T10:22:47.419Z,67.53
2019-02-26T10:25:15.214Z,64.05
2019-02-26T10:27:43.122Z,65.05
2019-02-26T10:30:16.268Z,64.03
2019-02-26T10:32:44.086Z,63.38
2019-02-26T10:35:16.560Z,58.48
2019-02-26T10:38:02.137Z,56.65
2019-02-26T10:40:34.582Z,51.50
2019-02-26T10:42:55.547Z,56.25
2019-02-26T10:45:28.664Z,64.05
2019-02-26T10:47:56.706Z,63.90
2019-02-26T10:50:25.596Z,54.42
2019-02-26T10:52:52.784Z,52.48
2019-02-26T10:55:21.864Z,62.08
2019-02-26T10:57:47.829Z,61.85
2019-02-26T11:00:30.265Z,54.80
2019-02-26T11:02:54.973Z,61.48
2019-02-26T11:05:26.258Z,62.53
2019-02-26T11:07:49.587Z,60.90
2019-02-26T11:10:18.129Z,59.83
2019-02-26T11:12:45.706Z,59.98
2019-02-26T11:15:13.742Z,61.65
2019-02-26T11:17:40.241Z,53.08
2019-02-26T11:20:11.804Z,50.55
2019-02-26T11:22:42.341Z,53.40
2019-02-26T11:25:13.340Z,53.55
2019-02-26T11:27:41.793Z,46.58
2019-02-26T11:30:21.107Z,51.85
2019-02-26T11:32:47.615Z,51.55
2019-02-26T11:35:16.774Z,48.60
2019-02-26T11:37:44.889Z,52.33
2019-02-26T11:40:13.175Z,51.02
2019-02-26T11:42:40.426Z,43.55
2019-02-26T11:45:19.381Z,45.55
2019-02-26T11:47:45.731Z,48.10
2019-02-26T11:50:16.773Z,47.58
2019-02-26T11:52:43.064Z,42.60
2019-02-26T11:55:11.298Z,46.80
2019-02-26T11:57:39.857Z,41.58
2019-02-26T12:00:25.457Z,43.40
2019-02-26T12:02:49.116Z,45.55
2019-02-26T12:05:16.007Z,40.23
2019-02-26T12:07:42.296Z,40.98
2019-02-26T12:10:14.723Z,44.18
2019-02-26T12:12:41.127Z,41.40
2019-02-26T12:15:12.357Z,44.25
2019-02-26T12:17:39.185Z,41.53
2019-02-26T12:20:08.815Z,38.05
2019-02-26T12:22:35.175Z,43.63
2019-02-26T12:25:04.860Z,44.80
2019-02-26T12:27:29.576Z,43.40
2019-02-26T12:29:55.896Z,39.05
2019-02-26T12:32:24.348Z,37.93
2019-02-26T12:34:51.440Z,41.65
2019-02-26T12:37:17.875Z,40.88
2019-02-26T12:39:46.499Z,39.55
2019-02-26T12:42:13.958Z,41.68
2019-02-26T12:44:44.747Z,41.08
2019-02-26T12:47:08.810Z,42.73
2019-02-26T12:49:36.504Z,35.58
2019-02-26T12:52:03.506Z,40.30
2019-02-26T12:54:33.282Z,36.98
2019-02-26T12:57:00.408Z,38.70
2019-02-26T12:59:26.120Z,36.85
2019-02-26T13:01:52.395Z,38.28
2019-02-26T13:04:21.545Z,37.30
2019-02-26T13:06:48.439Z,34.83
2019-02-26T13:09:14.938Z,40.60
2019-02-26T13:12:00.206Z,35.75
2019-02-26T13:14:09.434Z,43.48
2019-02-26T13:16:35.675Z,42.30
2019-02-26T13:19:04.579Z,46.55
2019-02-26T13:21:30.370Z,44.38
2019-02-26T13:24:03.606Z,42.75
2019-02-26T13:26:24.764Z,44.15
2019-02-26T13:28:53.037Z,42.95
2019-02-26T13:31:22.407Z,42.70
2019-02-26T13:33:47.312Z,43.42
2019-02-26T13:36:16.520Z,46.63
2019-02-26T13:38:45.937Z,41.48
2019-02-26T13:41:28.897Z,37.98
2019-02-26T13:43:39.378Z,34.23
2019-02-26T13:46:05.730Z,42.15
2019-02-26T13:48:32.165Z,38.78
2019-02-26T13:50:58.440Z,39.00
2019-02-26T13:53:24.897Z,39.38
2019-02-26T13:55:51.241Z,40.38
2019-02-26T13:58:17.673Z,44.95
2019-02-26T14:00:43.985Z,48.00
2019-02-26T14:03:10.519Z,47.78
2019-02-26T14:05:39.389Z,44.73
2019-02-26T14:08:05.685Z,54.08
2019-02-26T14:10:31.900Z,48.58
2019-02-26T14:12:58.196Z,49.00
2019-02-26T14:15:26.898Z,49.13
2019-02-26T14:17:55.072Z,46.33
2019-02-26T14:20:21.519Z,42.88
2019-02-26T14:22:49.884Z,44.67
2019-02-26T14:25:16.206Z,41.40
2019-02-26T14:27:42.524Z,39.73
2019-02-26T14:30:13.684Z,38.13
2019-02-26T14:32:42.356Z,39.75
2019-02-26T14:35:10.859Z,35.45
2019-02-26T14:37:37.134Z,39.20
2019-02-26T14:40:07.115Z,39.45
2019-02-26T14:42:33.715Z,41.40
2019-02-26T14:45:00.100Z,35.70
2019-02-26T14:47:26.502Z,37.75
2019-02-26T14:49:52.809Z,38.80
2019-02-26T14:52:19.102Z,37.73
2019-02-26T14:54:45.338Z,41.70
2019-02-26T14:57:11.930Z,39.63
2019-02-26T14:59:38.210Z,38.28
2019-02-26T15:02:04.473Z,40.67
2019-02-26T15:04:30.762Z,40.23
2019-02-26T15:06:59.908Z,42.30
2019-02-26T15:09:26.154Z,50.52
2019-02-26T15:11:55.688Z,45.75
2019-02-26T15:14:22.088Z,45.50
2019-02-26T15:16:48.410Z,46.80
2019-02-26T15:19:14.752Z,46.85
2019-02-26T15:21:41.101Z,46.25
2019-02-26T15:24:07.534Z,42.78
2019-02-26T15:26:33.870Z,42.95
2019-02-26T15:29:00.120Z,45.58
2019-02-26T15:31:26.373Z,41.30
2019-02-26T15:33:52.931Z,42.25
2019-02-26T15:36:19.218Z,44.42
2019-02-26T15:38:45.847Z,52.27
2019-02-26T15:41:12.082Z,49.35
2019-02-26T15:43:38.340Z,49.00
2019-02-26T15:46:08.435Z,51.23
2019-02-26T15:48:37.062Z,50.15
2019-02-26T15:51:03.333Z,49.10
2019-02-26T15:53:29.613Z,49.50
2019-02-26T15:55:59.210Z,51.13
2019-02-26T15:58:24.159Z,48.83
2019-02-26T16:00:50.555Z,50.78
2019-02-26T16:03:16.860Z,53.30
2019-02-26T16:05:45.030Z,55.40
2019-02-26T16:08:14.011Z,51.35
2019-02-26T16:10:40.309Z,50.52
2019-02-26T16:13:06.700Z,53.83
2019-02-26T16:15:34.225Z,55.83
2019-02-26T16:18:00.667Z,53.13
2019-02-26T16:20:27.199Z,54.95
2019-02-26T16:22:53.441Z,49.10
2019-02-26T16:25:19.740Z,57.33
2019-02-26T16:27:46.012Z,56.30
2019-02-26T16:30:27.002Z,55.92
2019-02-26T16:32:53.496Z,52.80
2019-02-26T16:35:25.579Z,51.80
2019-02-26T16:37:52.133Z,54.75
2019-02-26T16:40:18.379Z,60.45
2019-02-26T16:42:45.647Z,54.77
2019-02-26T16:45:14.156Z,53.10
2019-02-26T16:47:40.445Z,54.40
2019-02-26T16:50:15.072Z,56.48
2019-02-26T16:52:41.945Z,54.50
2019-02-26T16:55:13.651Z,61.42
2019-02-26T16:57:38.274Z,57.33
2019-02-26T17:00:16.362Z,55.33
2019-02-26T17:02:42.793Z,51.23
2019-02-26T17:05:09.682Z,56.73
2019-02-26T17:07:37.484Z,57.95
2019-02-26T17:10:22.436Z,58.83
2019-02-26T17:12:50.709Z,55.83
2019-02-26T17:15:25.538Z,57.43
2019-02-26T17:17:50.470Z,57.10
2019-02-26T17:20:16.730Z,54.85
2019-02-26T17:22:44.872Z,54.85
2019-02-26T17:25:11.330Z,53.23
2019-02-26T17:27:38.950Z,57.27
2019-02-26T17:30:09.190Z,51.73
2019-02-26T17:32:35.721Z,53.23
2019-02-26T17:35:05.621Z,58.68
2019-02-26T17:37:31.940Z,65.25
2019-02-26T17:40:11.550Z,66.53
2019-02-26T17:42:37.792Z,57.20
2019-02-26T17:45:07.638Z,55.40
2019-02-26T17:47:34.050Z,56.77
2019-02-26T17:50:00.388Z,58.35
2019-02-26T17:52:26.882Z,60.65
2019-02-26T17:54:53.189Z,54.40
2019-02-26T17:57:19.470Z,55.75
2019-02-26T17:59:45.949Z,56.73
2019-02-26T18:02:12.212Z,61.33
2019-02-26T18:04:40.286Z,55.12
2019-02-26T18:07:06.606Z,56.55
2019-02-26T18:09:34.630Z,58.95
2019-02-26T18:12:02.291Z,55.08
2019-02-26T18:14:29.026Z,59.05
2019-02-26T18:16:56.802Z,56.50
2019-02-26T18:19:23.125Z,58.87
2019-02-26T18:21:51.655Z,58.23
2019-02-26T18:24:18.002Z,60.78
2019-02-26T18:26:44.376Z,61.37
2019-02-26T18:29:13.992Z,60.80
2019-02-26T18:31:40.332Z,57.65
2019-02-26T18:34:06.649Z,59.70
2019-02-26T18:36:33.135Z,55.00
2019-02-26T18:38:59.379Z,58.60
2019-02-26T18:41:25.810Z,54.50
2019-02-26T18:43:52.099Z,56.05
2019-02-26T18:46:18.425Z,61.40
2019-02-26T18:48:48.525Z,60.15
2019-02-26T18:51:13.040Z,61.63
2019-02-26T18:53:39.700Z,59.35
2019-02-26T18:56:06.542Z,64.60
2019-02-26T18:58:32.873Z,63.55
2019-02-26T19:00:59.220Z,64.97
2019-02-26T19:03:25.502Z,64.12
2019-02-26T19:05:54.950Z,65.70
2019-02-26T19:08:23.511Z,68.75
2019-02-26T19:10:50.860Z,69.60
2019-02-26T19:13:18.646Z,64.67
2019-02-26T19:15:47.647Z,61.08
2019-02-26T19:18:13.024Z,67.37
2019-02-26T19:20:39.391Z,66.72
2019-02-26T19:23:05.634Z,60.98
2019-02-26T19:25:31.867Z,63.05
2019-02-26T19:27:58.296Z,63.10
2019-02-26T19:30:24.684Z,57.50
2019-02-26T19:32:50.993Z,63.25
2019-02-26T19:35:17.375Z,68.17
2019-02-26T19:37:44.983Z,64.30
2019-02-26T19:40:17.584Z,66.57
2019-02-26T19:42:43.895Z,67.80
2019-02-26T19:45:11.802Z,69.32
2019-02-26T19:47:38.286Z,64.15
2019-02-26T19:50:11.642Z,61.60
2019-02-26T19:52:36.138Z,61.50
2019-02-26T19:55:06.041Z,63.58
2019-02-26T19:57:32.324Z,65.97
2019-02-26T20:00:00.679Z,69.35
2019-02-26T20:02:26.707Z,66.15
2019-02-26T20:04:53.035Z,67.27
2019-02-26T20:07:19.310Z,66.60
2019-02-26T20:09:45.564Z,67.78
2019-02-26T20:12:14.524Z,62.55
2019-02-26T20:14:42.683Z,65.42
2019-02-26T20:17:14.704Z,64.05
2019-02-26T20:19:37.197Z,71.25
2019-02-26T20:22:03.516Z,72.27
2019-02-26T20:24:29.779Z,68.10
2019-02-26T20:26:56.574Z,61.80
2019-02-26T20:29:23.552Z,62.08
2019-02-26T20:31:55.758Z,63.80
2019-02-26T20:34:20.649Z,65.10
2019-02-26T20:36:48.811Z,64.85
2019-02-26T20:39:15.473Z,63.48
2019-02-26T20:41:41.732Z,63.73
2019-02-26T20:44:10.219Z,60.10
2019-02-26T20:46:36.412Z,65.47
2019-02-26T20:49:02.674Z,63.02
2019-02-26T20:51:28.936Z,65.35
2019-02-26T20:53:55.540Z,63.92
2019-02-26T20:56:21.860Z,63.87
2019-02-26T20:58:48.227Z,65.80
2019-02-26T21:01:14.529Z,67.47
2019-02-26T21:03:40.786Z,62.03
2019-02-26T21:06:07.044Z,67.08
2019-02-26T21:08:33.363Z,64.67
2019-02-26T21:10:59.638Z,62.08
2019-02-26T21:13:25.904Z,64.82
2019-02-26T21:15:52.191Z,65.87
2019-02-26T21:18:19.406Z,65.62
2019-02-26T21:20:45.655Z,67.40
2019-02-26T21:23:11.974Z,64.05
2019-02-26T21:25:43.841Z,67.15
2019-02-26T21:28:09.026Z,68.02
2019-02-26T21:30:35.369Z,69.07
2019-02-26T21:33:01.708Z,68.35
2019-02-26T21:35:28.395Z,62.03
2019-02-26T21:37:54.743Z,60.40
2019-02-26T21:40:21.158Z,68.17
2019-02-26T21:42:47.430Z,65.80
2019-02-26T21:45:16.471Z,67.10
2019-02-26T21:47:42.950Z,61.30
2019-02-26T21:50:14.352Z,63.10
2019-02-26T21:52:42.090Z,63.65
2019-02-26T21:55:10.503Z,60.12
2019-02-26T21:57:36.848Z,61.55
2019-02-26T22:00:10.170Z,62.15
2019-02-26T22:02:36.431Z,63.23
2019-02-26T22:05:05.266Z,60.28
2019-02-26T22:07:32.252Z,63.28
2019-02-26T22:09:58.555Z,63.92
2019-02-26T22:12:24.849Z,61.28
2019-02-26T22:14:51.244Z,63.20
2019-02-26T22:17:17.561Z,64.95
2019-02-26T22:19:44.095Z,62.88
2019-02-26T22:22:10.365Z,66.80
2019-02-26T22:24:37.798Z,67.55
2019-02-26T22:27:04.734Z,63.78
2019-02-26T22:29:31.129Z,63.52
2019-02-26T22:31:59.714Z,63.90
2019-02-26T22:34:25.875Z,58.78
2019-02-26T22:36:52.195Z,66.10
2019-02-26T22:39:22.264Z,66.67
2019-02-26T22:41:46.681Z,60.03
2019-02-26T22:44:13.068Z,66.30
2019-02-26T22:46:39.336Z,66.35
2019-02-26T22:49:05.722Z,66.65
2019-02-26T22:51:32.000Z,61.70
2019-02-26T22:53:58.270Z,62.38
2019-02-26T22:56:24.778Z,65.10
2019-02-26T22:58:52.735Z,59.40
2019-02-26T23:01:30.570Z,61.53
2019-02-26T23:03:52.438Z,65.57
2019-02-26T23:06:18.807Z,61.50
2019-02-26T23:08:45.392Z,60.25
2019-02-26T23:11:12.954Z,62.83
2019-02-26T23:13:39.353Z,62.88
2019-02-26T23:16:05.612Z,61.42
2019-02-26T23:18:32.199Z,62.08
2019-02-26T23:20:58.465Z,62.53
2019-02-26T23:23:24.897Z,60.50
2019-02-26T23:25:53.051Z,60.03
2019-02-26T23:28:21.702Z,62.23
2019-02-26T23:30:47.671Z,61.98
2019-02-26T23:33:15.263Z,63.13
2019-02-26T23:35:42.011Z,56.77
2019-02-26T23:38:09.164Z,56.53
2019-02-26T23:40:35.459Z,59.45
2019-02-26T23:43:01.843Z,61.00
2019-02-26T23:45:28.227Z,56.20
2019-02-26T23:47:54.602Z,64.92
2019-02-26T23:50:20.911Z,60.58
2019-02-26T23:52:47.207Z,61.10
2019-02-26T23:55:14.026Z,58.20
2019-02-26T23:57:40.388Z,64.35
